Mckinley Sea — WDE5024 — position and weather

sailwx.info

Track history (hours):
 
Tides and Currents Weather Stations Pressure Air Temp Water Temp Dewpoint Dewpoint Depression Visibility Wind Speed Wind Dir Waves Ship Positions

Mckinley Sea

Owner: Kirby Offshore Marine, LLC, Staten Island, NY. More information available from US FCC via Universal Licensing System and Coast Guard Vessel Documentation Center.

Last reported at 2016-Feb-10 05:33 UTC. Time now 2016-Feb-10 06:45 UTC.
Position N 42°31' W 070°39'.

Length 41 m; draft 7 m.

Type: Tanker. MMSI: 367360980.

Date/timePositionNaut miles runAvg speedWind from/ knotsBaromVisibWave heightAir tempDewpointWater temp
2016-Feb-10 05:33N 42°31' W 070°39'  
2016-Feb-04 21:04N 41°11' W 072°22'4 6.8
2016-Feb-04 20:29N 41°10' W 072°27'7 7.3
2016-Feb-04 19:33N 41°08' W 072°36'41 8.2
2016-Feb-04 14:33N 40°58' W 073°29'24 6.8
2016-Feb-04 11:05N 40°47' W 073°56'3 4.8
2016-Feb-04 10:33N 40°45' W 073°58'7 6.9
2016-Feb-04 09:34N 40°39' W 074°04'7 6.0
2016-Feb-04 08:25N 40°37' W 074°12'1 0.4
2016-Feb-04 05:17N 40°38' W 074°12'2 0.4
2016-Feb-04 01:20N 40°38' W 074°10'2 0.2
2016-Feb-03 15:33N 40°38' W 074°12'1 0.3
2016-Feb-03 12:22N 40°39' W 074°11'6 7.7
2016-Feb-03 11:33N 40°40' W 074°03'0 0.2
2016-Feb-03 10:33N 40°40' W 074°03'0 0.1
2016-Feb-03 09:33N 40°40' W 074°03'0 0.0
2016-Feb-03 08:33N 40°40' W 074°03'0 0.0
2016-Feb-03 07:33N 40°40' W 074°03'0 0.5
2016-Feb-03 06:33N 40°39' W 074°03'0 0.1
2016-Feb-03 05:33N 40°39' W 074°03'0 0.0
2016-Feb-03 04:33N 40°39' W 074°03'0 0.0
2016-Feb-03 03:33N 40°39' W 074°03'0 0.0
2016-Feb-03 02:33N 40°39' W 074°03'0 0.0
2016-Feb-03 01:33N 40°39' W 074°03'0 0.0
2016-Feb-03 00:34N 40°39' W 074°03'0 0.0
2016-Feb-02 23:33N 40°39' W 074°03'0 0.1
2016-Feb-02 22:33N 40°39' W 074°03'0 0.1
2016-Feb-02 21:33N 40°39' W 074°03'0 0.0
2016-Feb-02 20:33N 40°39' W 074°03'0 0.1
2016-Feb-02 19:33N 40°39' W 074°03'0 0.1
2016-Feb-02 18:33N 40°39' W 074°03'0 0.1
2016-Feb-02 17:33N 40°39' W 074°03'0 0.0
2016-Feb-02 16:33N 40°39' W 074°03'0 0.0
2016-Feb-02 15:34N 40°39' W 074°03'0 0.0
2016-Feb-02 14:33N 40°39' W 074°03'0 0.0
2016-Feb-02 13:33N 40°39' W 074°03'0 0.0
2016-Feb-02 12:33N 40°39' W 074°03'0 0.0
2016-Feb-02 11:33N 40°39' W 074°03'0 0.0
2016-Feb-02 10:33N 40°39' W 074°03'0 0.1
2016-Feb-02 09:33N 40°39' W 074°03'0 0.1
2016-Feb-02 08:33N 40°39' W 074°03'0 0.0
2016-Feb-02 07:33N 40°39' W 074°03'0 0.1
2016-Feb-02 06:33N 40°39' W 074°03'0 0.1
2016-Feb-02 05:33N 40°39' W 074°03'0 0.0
2016-Feb-02 04:33N 40°39' W 074°03'0 0.0
2016-Feb-02 03:33N 40°39' W 074°03'0 0.0
2016-Feb-02 02:33N 40°39' W 074°03'0 0.0
2016-Feb-02 01:33N 40°39' W 074°03'0 0.0
2016-Feb-02 00:33N 40°39' W 074°03'0 0.0
2016-Feb-01 23:33N 40°39' W 074°03'0 0.0
2016-Feb-01 22:33N 40°39' W 074°03'0 0.0
2016-Feb-01 21:33N 40°39' W 074°03'0 0.2
2016-Feb-01 20:33N 40°39' W 074°03'0 0.1
2016-Feb-01 19:33N 40°40' W 074°03'1 1.3
2016-Feb-01 18:33N 40°39' W 074°04'2 0.4
2016-Feb-01 12:33N 40°39' W 074°07'3 3.3
2016-Feb-01 11:33N 40°39' W 074°03'0 0.0
2016-Feb-01 10:33N 40°39' W 074°03'0 0.2
2016-Feb-01 09:33N 40°40' W 074°03'0 0.1
2016-Feb-01 08:33N 40°40' W 074°03'0 0.0
2016-Feb-01 07:33N 40°40' W 074°03'0 0.0
2016-Feb-01 06:33N 40°40' W 074°03'0 0.1
2016-Feb-01 05:33N 40°40' W 074°03'0 0.1
2016-Feb-01 04:33N 40°40' W 074°03'0 0.1
2016-Feb-01 03:33N 40°39' W 074°03'0 0.1
2016-Feb-01 02:33N 40°39' W 074°03'0 0.0
2016-Feb-01 01:33N 40°39' W 074°03'0 0.0
2016-Feb-01 00:33N 40°39' W 074°03'0 0.0
2016-Jan-31 23:33N 40°39' W 074°03'0 0.0
2016-Jan-31 22:33N 40°39' W 074°03'0 0.0
2016-Jan-31 21:33N 40°39' W 074°03'0 0.1
2016-Jan-31 20:33N 40°39' W 074°03'5 4.9
2016-Jan-31 19:33N 40°38' W 074°09'1 0.3
2016-Jan-31 17:21N 40°39' W 074°10'6 7.1
2016-Jan-31 16:33N 40°39' W 074°03'0 0.0
2016-Jan-31 15:33N 40°39' W 074°03'0 0.0
2016-Jan-31 14:33N 40°39' W 074°03'0 0.0
2016-Jan-31 13:33N 40°39' W 074°03'0 0.0
2016-Jan-31 12:34N 40°39' W 074°03'0 0.0
2016-Jan-31 11:33N 40°39' W 074°03'0 0.0
2016-Jan-31 10:33N 40°39' W 074°03'0 0.0
2016-Jan-31 09:33N 40°39' W 074°03'0 0.1
2016-Jan-31 08:34N 40°39' W 074°03'0 0.1
2016-Jan-31 07:33N 40°40' W 074°02'0 0.0
2016-Jan-31 06:33N 40°40' W 074°02'0 0.0
2016-Jan-31 05:33N 40°40' W 074°03'  
Track history (hours):
 
Tides and Currents Weather Stations Pressure Air Temp Water Temp Dewpoint Dewpoint Depression Visibility Wind Speed Wind Dir Waves Ship Positions

Mckinley Sea

Owner: Kirby Offshore Marine, LLC, Staten Island, NY. More information available from US FCC via Universal Licensing System and Coast Guard Vessel Documentation Center.

Last reported at 2016-Feb-10 05:33 UTC. Time now 2016-Feb-10 06:45 UTC.
Position N 42°31' W 070°39'.

Length 41 m; draft 7 m.

Type: Tanker. MMSI: 367360980.

Date/timePositionNaut miles runAvg speedWind from/ knotsBaromVisibWave heightAir tempDewpointWater temp
2016-Feb-10 05:33N 42°31' W 070°39'  
2016-Feb-04 21:04N 41°11' W 072°22'4 6.8
2016-Feb-04 20:29N 41°10' W 072°27'7 7.3
2016-Feb-04 19:33N 41°08' W 072°36'41 8.2
2016-Feb-04 14:33N 40°58' W 073°29'24 6.8
2016-Feb-04 11:05N 40°47' W 073°56'3 4.8
2016-Feb-04 10:33N 40°45' W 073°58'7 6.9
2016-Feb-04 09:34N 40°39' W 074°04'7 6.0
2016-Feb-04 08:25N 40°37' W 074°12'1 0.4
2016-Feb-04 05:17N 40°38' W 074°12'2 0.4
2016-Feb-04 01:20N 40°38' W 074°10'2 0.2
2016-Feb-03 15:33N 40°38' W 074°12'1 0.3
2016-Feb-03 12:22N 40°39' W 074°11'6 7.7
2016-Feb-03 11:33N 40°40' W 074°03'0 0.2
2016-Feb-03 10:33N 40°40' W 074°03'0 0.1
2016-Feb-03 09:33N 40°40' W 074°03'0 0.0
2016-Feb-03 08:33N 40°40' W 074°03'0 0.0
2016-Feb-03 07:33N 40°40' W 074°03'0 0.5
2016-Feb-03 06:33N 40°39' W 074°03'0 0.1
2016-Feb-03 05:33N 40°39' W 074°03'0 0.0
2016-Feb-03 04:33N 40°39' W 074°03'0 0.0
2016-Feb-03 03:33N 40°39' W 074°03'0 0.0
2016-Feb-03 02:33N 40°39' W 074°03'0 0.0
2016-Feb-03 01:33N 40°39' W 074°03'0 0.0
2016-Feb-03 00:34N 40°39' W 074°03'0 0.0
2016-Feb-02 23:33N 40°39' W 074°03'0 0.1
2016-Feb-02 22:33N 40°39' W 074°03'0 0.1
2016-Feb-02 21:33N 40°39' W 074°03'0 0.0
2016-Feb-02 20:33N 40°39' W 074°03'0 0.1
2016-Feb-02 19:33N 40°39' W 074°03'0 0.1
2016-Feb-02 18:33N 40°39' W 074°03'0 0.1
2016-Feb-02 17:33N 40°39' W 074°03'0 0.0
2016-Feb-02 16:33N 40°39' W 074°03'0 0.0
2016-Feb-02 15:34N 40°39' W 074°03'0 0.0
2016-Feb-02 14:33N 40°39' W 074°03'0 0.0
2016-Feb-02 13:33N 40°39' W 074°03'0 0.0
2016-Feb-02 12:33N 40°39' W 074°03'0 0.0
2016-Feb-02 11:33N 40°39' W 074°03'0 0.0
2016-Feb-02 10:33N 40°39' W 074°03'0 0.1
2016-Feb-02 09:33N 40°39' W 074°03'0 0.1
2016-Feb-02 08:33N 40°39' W 074°03'0 0.0
2016-Feb-02 07:33N 40°39' W 074°03'0 0.1
2016-Feb-02 06:33N 40°39' W 074°03'0 0.1
2016-Feb-02 05:33N 40°39' W 074°03'0 0.0
2016-Feb-02 04:33N 40°39' W 074°03'0 0.0
2016-Feb-02 03:33N 40°39' W 074°03'0 0.0
2016-Feb-02 02:33N 40°39' W 074°03'0 0.0
2016-Feb-02 01:33N 40°39' W 074°03'0 0.0
2016-Feb-02 00:33N 40°39' W 074°03'0 0.0
2016-Feb-01 23:33N 40°39' W 074°03'0 0.0
2016-Feb-01 22:33N 40°39' W 074°03'0 0.0
2016-Feb-01 21:33N 40°39' W 074°03'0 0.2
2016-Feb-01 20:33N 40°39' W 074°03'0 0.1
2016-Feb-01 19:33N 40°40' W 074°03'1 1.3
2016-Feb-01 18:33N 40°39' W 074°04'2 0.4
2016-Feb-01 12:33N 40°39' W 074°07'3 3.3
2016-Feb-01 11:33N 40°39' W 074°03'0 0.0
2016-Feb-01 10:33N 40°39' W 074°03'0 0.2
2016-Feb-01 09:33N 40°40' W 074°03'0 0.1
2016-Feb-01 08:33N 40°40' W 074°03'0 0.0
2016-Feb-01 07:33N 40°40' W 074°03'0 0.0
2016-Feb-01 06:33N 40°40' W 074°03'0 0.1
2016-Feb-01 05:33N 40°40' W 074°03'0 0.1
2016-Feb-01 04:33N 40°40' W 074°03'0 0.1
2016-Feb-01 03:33N 40°39' W 074°03'0 0.1
2016-Feb-01 02:33N 40°39' W 074°03'0 0.0
2016-Feb-01 01:33N 40°39' W 074°03'0 0.0
2016-Feb-01 00:33N 40°39' W 074°03'0 0.0
2016-Jan-31 23:33N 40°39' W 074°03'0 0.0
2016-Jan-31 22:33N 40°39' W 074°03'0 0.0
2016-Jan-31 21:33N 40°39' W 074°03'0 0.1
2016-Jan-31 20:33N 40°39' W 074°03'5 4.9
2016-Jan-31 19:33N 40°38' W 074°09'1 0.3
2016-Jan-31 17:21N 40°39' W 074°10'6 7.1
2016-Jan-31 16:33N 40°39' W 074°03'0 0.0
2016-Jan-31 15:33N 40°39' W 074°03'0 0.0
2016-Jan-31 14:33N 40°39' W 074°03'0 0.0
2016-Jan-31 13:33N 40°39' W 074°03'0 0.0
2016-Jan-31 12:34N 40°39' W 074°03'0 0.0
2016-Jan-31 11:33N 40°39' W 074°03'0 0.0
2016-Jan-31 10:33N 40°39' W 074°03'0 0.0
2016-Jan-31 09:33N 40°39' W 074°03'0 0.1
2016-Jan-31 08:34N 40°39' W 074°03'0 0.1
2016-Jan-31 07:33N 40°40' W 074°02'0 0.0
2016-Jan-31 06:33N 40°40' W 074°02'0 0.0
2016-Jan-31 05:33N 40°40' W 074°03'  

Dump ship's entire track history